createdAt,value
2019-04-23T10:24:20.997Z,42.50
2019-04-23T10:27:08.307Z,42.60
2019-04-23T10:29:56.141Z,42.00
2019-04-23T10:32:43.187Z,41.30
2019-04-23T10:35:41.556Z,41.60
2019-04-23T10:38:20.286Z,40.50
2019-04-23T10:41:06.405Z,40.00
2019-04-23T10:43:58.579Z,39.80
2019-04-23T10:47:30.473Z,39.80
2019-04-23T10:50:57.684Z,39.20
2019-04-23T10:56:31.058Z,35.90
2019-04-23T10:59:34.186Z,36.80
2019-04-23T11:02:35.026Z,35.60
2019-04-23T11:05:08.848Z,36.20
2019-04-23T11:07:43.409Z,33.50
2019-04-23T11:10:46.333Z,34.50
2019-04-23T11:13:37.897Z,34.50
2019-04-23T11:19:15.126Z,34.20
2019-04-23T11:22:20.218Z,34.60
2019-04-23T11:24:50.218Z,33.80
2019-04-23T11:38:54.577Z,32.20
2019-04-23T11:41:43.250Z,33.30
2019-04-23T11:47:42.471Z,32.40
2019-04-23T11:50:09.598Z,32.00
2019-04-23T11:53:01.168Z,31.00
2019-04-23T11:58:28.406Z,30.70
2019-04-23T12:01:42.249Z,30.50
2019-04-23T12:07:19.016Z,30.20
2019-04-23T12:13:03.318Z,30.80
2019-04-23T12:15:47.921Z,29.90
2019-04-23T12:18:43.252Z,30.00
2019-04-23T12:21:28.395Z,30.90
2019-04-23T12:24:28.181Z,31.20
2019-04-23T12:27:09.646Z,30.90
2019-04-23T12:35:22.487Z,30.70
2019-04-23T12:38:21.904Z,30.60
2019-04-23T12:41:24.280Z,29.30
2019-04-23T12:43:50.463Z,30.40
2019-04-23T12:46:46.145Z,30.50
2019-04-23T12:49:44.409Z,30.40
2019-04-23T12:52:19.044Z,30.70
2019-04-23T12:57:57.381Z,30.40
2019-04-23T13:03:30.205Z,28.90
2019-04-23T13:06:11.773Z,28.30
2019-04-23T13:09:01.461Z,28.10
2019-04-23T13:11:52.982Z,27.70
2019-04-23T13:14:49.550Z,27.30
2019-04-23T13:17:42.565Z,28.00
2019-04-23T13:20:20.189Z,27.90
2019-04-23T13:26:04.046Z,28.00
2019-04-23T13:28:51.018Z,27.90
2019-04-23T13:31:42.244Z,28.20
2019-04-23T13:34:41.179Z,28.10
2019-04-23T13:37:29.380Z,28.10
2019-04-23T13:40:12.896Z,28.80
2019-04-23T13:43:00.950Z,28.70
2019-04-23T13:45:59.229Z,28.90
2019-04-23T13:48:24.751Z,29.80
2019-04-23T13:57:34.763Z,30.50
2019-04-23T14:05:27.015Z,33.00
2019-04-23T14:08:43.290Z,32.70
2019-04-23T14:11:02.221Z,32.80
2019-04-23T14:19:16.369Z,32.20
2019-04-23T14:22:31.299Z,32.80
2019-04-23T14:27:56.651Z,33.50
2019-04-23T14:36:14.039Z,33.60
2019-04-23T14:39:05.767Z,33.10
2019-04-23T14:41:56.578Z,33.00
2019-04-23T14:44:44.436Z,34.00
2019-04-23T14:53:20.261Z,31.70
2019-04-23T14:59:01.645Z,30.00
2019-04-23T15:01:54.998Z,29.10
2019-04-23T15:04:31.725Z,28.70
2019-04-23T15:07:25.921Z,28.80
2019-04-23T15:10:18.405Z,29.10
2019-04-23T15:15:44.201Z,29.80
2019-04-23T15:19:10.787Z,29.60
2019-04-23T15:24:52.333Z,29.80
2019-04-23T15:28:03.606Z,30.10
2019-04-23T15:30:07.008Z,30.80
2019-04-23T15:33:23.677Z,31.10
2019-04-23T15:41:38.216Z,33.00
2019-04-23T15:44:23.034Z,33.20
2019-04-23T15:47:10.830Z,33.80
2019-04-23T15:50:03.201Z,33.00
2019-04-23T15:55:28.290Z,33.00
2019-04-23T16:01:29.328Z,32.10
2019-04-23T16:03:47.249Z,32.70
2019-04-23T16:06:34.804Z,32.40
2019-04-23T16:09:54.071Z,31.50
2019-04-23T16:12:31.577Z,32.50
2019-04-23T16:15:22.039Z,32.90
2019-04-23T16:18:31.279Z,33.00
2019-04-23T16:21:27.299Z,33.00
2019-04-23T16:24:01.137Z,32.50
2019-04-23T16:26:47.421Z,32.40
2019-04-23T16:29:44.453Z,32.10
2019-04-23T16:32:28.381Z,32.40
2019-04-23T16:35:18.226Z,32.10
2019-04-23T16:38:21.349Z,31.70
2019-04-23T16:40:47.550Z,32.70
2019-04-23T16:43:33.731Z,33.60
2019-04-23T16:46:44.102Z,34.10
2019-04-23T16:52:01.285Z,34.90
2019-04-23T17:00:31.825Z,36.00
2019-04-23T17:03:21.116Z,36.20
2019-04-23T17:06:06.924Z,37.50
